createdAt,value
2018-04-11T00:03:41.566Z,6.92
2018-04-11T00:09:32.247Z,6.03
2018-04-11T00:15:22.921Z,6.03
2018-04-11T00:21:13.630Z,7.1
2018-04-11T00:27:04.405Z,7.49
2018-04-11T00:32:55.025Z,6.26
2018-04-11T00:38:45.735Z,7.31
2018-04-11T00:44:36.447Z,8.6
2018-04-11T00:50:27.139Z,7.24
2018-04-11T00:56:17.913Z,6.11
2018-04-11T01:02:08.535Z,7.46
2018-04-11T01:07:59.271Z,7.46
2018-04-11T01:13:49.947Z,7.6
2018-04-11T01:19:40.678Z,5.38
2018-04-11T01:25:31.361Z,4.64
2018-04-11T01:31:22.075Z,4.96
2018-04-11T01:37:12.764Z,5.15
2018-04-11T01:43:03.520Z,8.14
2018-04-11T01:48:54.219Z,7.98
2018-04-11T01:54:44.865Z,8.67
2018-04-11T02:00:35.619Z,9.38
2018-04-11T02:06:26.279Z,6.39
2018-04-11T02:12:17.098Z,5.02
2018-04-11T02:18:07.656Z,3.82
2018-04-11T02:23:58.351Z,4.14
2018-04-11T02:29:49.053Z,5.73
2018-04-11T02:35:39.847Z,7.34
2018-04-11T02:41:30.434Z,7.66
2018-04-11T02:47:21.160Z,7.9
2018-04-11T02:53:11.856Z,7.36
2018-04-11T02:59:02.579Z,7.77
2018-04-11T03:04:53.283Z,7.84
2018-04-11T03:10:43.991Z,7.46
2018-04-11T03:16:34.727Z,4.26
2018-04-11T03:22:25.375Z,4.19
2018-04-11T03:28:16.076Z,3.39
2018-04-11T03:34:06.829Z,3.44
2018-04-11T03:39:57.579Z,4.68
2018-04-11T03:45:48.204Z,4.61
2018-04-11T03:51:38.925Z,4.69
2018-04-11T03:57:29.603Z,2.84
2018-04-11T04:03:20.338Z,2.54
2018-04-11T04:09:11.024Z,2.49
2018-04-11T04:15:01.715Z,2.29
2018-04-11T04:20:52.380Z,4.86
2018-04-11T04:26:43.154Z,9.56
2018-04-11T04:32:33.831Z,11.8
2018-04-11T04:38:24.515Z,12.82
2018-04-11T04:44:15.213Z,14.25
2018-04-11T04:50:05.909Z,12.56
2018-04-11T04:55:56.654Z,13.01
2018-04-11T05:01:47.361Z,6.32
2018-04-11T05:07:38.102Z,10.91
2018-04-11T05:13:28.774Z,5.95
2018-04-11T05:19:19.519Z,4.2
2018-04-11T05:25:10.166Z,2.12
2018-04-11T05:31:00.862Z,2.54
2018-04-11T05:36:51.581Z,5.19
2018-04-11T05:42:42.282Z,11.27
2018-04-11T05:48:32.965Z,8.52
2018-04-11T05:54:23.661Z,11.66
2018-04-11T06:00:14.354Z,11.71
2018-04-11T06:06:05.078Z,8.31
2018-04-11T06:11:55.759Z,7.02
2018-04-11T06:17:46.465Z,11.66
2018-04-11T06:23:37.155Z,12.94
2018-04-11T06:29:27.882Z,13.1
2018-04-11T06:35:18.559Z,15.15
2018-04-11T06:41:09.271Z,16.94
2018-04-11T06:47:00.005Z,18.06
2018-04-11T06:52:50.656Z,17
2018-04-11T06:58:41.425Z,18.06
2018-04-11T07:04:32.079Z,18.03
2018-04-11T07:10:22.825Z,16.59
2018-04-11T07:16:13.495Z,18.66
2018-04-11T07:22:04.166Z,14.66
2018-04-11T07:27:54.899Z,8.32
2018-04-11T07:33:45.631Z,8.13
2018-04-11T07:39:36.300Z,6.39
2018-04-11T07:45:27.037Z,7.99
2018-04-11T07:51:17.743Z,10.41
2018-04-11T07:57:08.424Z,12.21
2018-04-11T08:02:59.114Z,8.77
2018-04-11T08:08:49.842Z,8.48
2018-04-11T08:14:40.516Z,7.69
2018-04-11T08:20:31.254Z,3.57
2018-04-11T08:26:21.956Z,2.53
2018-04-11T08:32:12.713Z,3
2018-04-11T08:38:03.355Z,2.45
2018-04-11T08:43:54.069Z,2.6
2018-04-11T08:49:44.809Z,2.23
2018-04-11T08:55:35.503Z,2.59
2018-04-11T09:01:26.239Z,2.49
2018-04-11T09:07:16.928Z,1.93
2018-04-11T09:13:07.652Z,1.89
2018-04-11T09:18:58.344Z,1.99
2018-04-11T09:24:49.141Z,1.97
2018-04-11T09:30:39.748Z,1.8
2018-04-11T09:36:30.464Z,2.01
2018-04-11T09:42:21.191Z,2.05
2018-04-11T09:48:11.893Z,1.91
2018-04-11T09:54:02.633Z,2.08
2018-04-11T09:59:53.344Z,2.01
2018-04-11T10:05:44.058Z,2.58
2018-04-11T10:11:34.780Z,2.06
2018-04-11T10:17:25.462Z,2.41
2018-04-11T10:23:16.625Z,2.26
2018-04-11T10:29:06.918Z,2.89
2018-04-11T10:34:57.629Z,2.08
2018-04-11T10:40:48.339Z,1.67
2018-04-11T10:46:39.054Z,1.84
2018-04-11T10:52:29.753Z,2.55
2018-04-11T10:58:20.484Z,2.14
2018-04-11T11:04:11.187Z,1.81
2018-04-11T11:10:01.970Z,2.45
2018-04-11T11:15:52.643Z,2.35
2018-04-11T11:21:43.392Z,1.94
2018-04-11T11:27:34.068Z,2.04
2018-04-11T11:33:24.824Z,2.29
2018-04-11T11:39:15.524Z,2.41
2018-04-11T11:45:06.243Z,2.11
2018-04-11T11:50:56.931Z,2.35
2018-04-11T11:56:47.703Z,2.01
2018-04-11T12:02:38.355Z,2.45
2018-04-11T12:08:29.108Z,1.91
2018-04-11T12:14:19.747Z,1.95
2018-04-11T12:20:10.567Z,2.21
2018-04-11T12:26:01.239Z,2.29
2018-04-11T12:31:51.995Z,2.45
2018-04-11T12:37:42.623Z,2.61
2018-04-11T12:43:33.380Z,2.17
2018-04-11T12:49:24.095Z,2.29
2018-04-11T12:55:14.796Z,2.47
2018-04-11T13:01:05.493Z,2.1
2018-04-11T13:06:56.222Z,2.27
2018-04-11T13:12:46.899Z,2.72
2018-04-11T13:18:37.637Z,2.55
2018-04-11T13:24:28.341Z,1.85
2018-04-11T13:30:19.094Z,1.96
2018-04-11T13:36:09.773Z,2.42
2018-04-11T13:42:00.566Z,2.18
2018-04-11T13:47:51.190Z,2.27
2018-04-11T13:53:41.892Z,3
2018-04-11T13:59:32.624Z,2.2
2018-04-11T14:05:23.360Z,2.15
2018-04-11T14:11:14.072Z,3.07
2018-04-11T14:17:04.749Z,2.88
2018-04-11T14:22:55.472Z,2.62
2018-04-11T14:28:46.213Z,3.09
2018-04-11T14:34:36.902Z,2.69
2018-04-11T14:40:27.631Z,3.04
2018-04-11T14:46:18.359Z,3.85
2018-04-11T14:52:09.024Z,2.86
2018-04-11T14:57:59.727Z,2.95
2018-04-11T15:03:50.499Z,3.37
2018-04-11T15:09:41.175Z,3.68
2018-04-11T15:15:31.923Z,3.7
2018-04-11T15:21:22.675Z,3.4
2018-04-11T15:27:13.388Z,3.25
2018-04-11T15:33:04.013Z,3.53
2018-04-11T15:38:54.759Z,3.56
2018-04-11T15:44:45.439Z,4.11
2018-04-11T15:50:36.192Z,3.67
2018-04-11T15:56:26.838Z,3.78
2018-04-11T16:02:17.594Z,4.22
2018-04-11T16:08:08.290Z,3.44
2018-04-11T16:13:58.998Z,2.98
2018-04-11T16:19:49.758Z,2.89
2018-04-11T16:25:40.453Z,2.66
2018-04-11T16:31:31.189Z,3.39
2018-04-11T16:37:21.936Z,3.54
2018-04-11T16:43:12.633Z,3.54
2018-04-11T16:49:03.247Z,3.97
2018-04-11T16:54:53.973Z,3.66
2018-04-11T17:00:44.700Z,4.01
2018-04-11T17:06:35.418Z,2.71
2018-04-11T17:12:26.118Z,3.52
2018-04-11T17:18:16.866Z,3.8
2018-04-11T17:24:07.582Z,3.66
2018-04-11T17:29:58.260Z,3.99
2018-04-11T17:35:48.964Z,3.42
2018-04-11T17:41:39.663Z,3.1
2018-04-11T17:47:30.323Z,3.6
2018-04-11T17:53:21.078Z,4.03
2018-04-11T17:59:11.814Z,4.59
2018-04-11T18:05:02.464Z,5.19
2018-04-11T18:10:53.196Z,5.18
2018-04-11T18:16:43.874Z,3.99
2018-04-11T18:22:34.588Z,4.05
2018-04-11T18:28:25.323Z,6.08
2018-04-11T18:34:16.028Z,10.24
2018-04-11T18:40:06.711Z,10.99
2018-04-11T18:45:57.503Z,9.46
2018-04-11T18:51:48.144Z,17.24
2018-04-11T18:57:38.872Z,12.23
2018-04-11T19:03:29.646Z,11
2018-04-11T19:09:20.314Z,10.27
2018-04-11T19:15:11.013Z,11.9
2018-04-11T19:21:01.750Z,11.11
2018-04-11T19:26:52.494Z,13.64
2018-04-11T19:32:43.115Z,12.8
2018-04-11T19:38:33.917Z,12.05
2018-04-11T19:44:24.596Z,12.37
2018-04-11T19:50:15.252Z,10.48
2018-04-11T19:56:05.980Z,10.67
2018-04-11T20:01:56.721Z,9.56
2018-04-11T20:07:47.373Z,10.6
2018-04-11T20:13:38.109Z,11.58
2018-04-11T20:19:28.825Z,9.68
2018-04-11T20:25:19.509Z,5.76
2018-04-11T20:31:10.257Z,5.31
2018-04-11T20:37:00.973Z,6.36
2018-04-11T20:42:51.656Z,7.91
2018-04-11T20:48:42.365Z,7.25
2018-04-11T20:54:33.075Z,5.95
2018-04-11T21:00:23.795Z,5.96
2018-04-11T21:06:14.482Z,9.36
2018-04-11T21:12:05.215Z,9.25
2018-04-11T21:17:55.941Z,10.34
2018-04-11T21:23:46.590Z,11.61
2018-04-11T21:29:37.385Z,9.88
2018-04-11T21:35:28.011Z,9.02
2018-04-11T21:41:18.772Z,5.4
2018-04-11T21:47:09.442Z,4.94
2018-04-11T21:53:00.211Z,4.96
2018-04-11T21:58:50.869Z,5.23
2018-04-11T22:04:41.627Z,5.21
2018-04-11T22:10:32.303Z,4.84
2018-04-11T22:16:22.961Z,5.59
2018-04-11T22:22:13.738Z,5.44
2018-04-11T22:28:04.424Z,4.68
2018-04-11T22:33:55.117Z,4.4
2018-04-11T22:39:45.850Z,4.61
2018-04-11T22:45:36.547Z,5.24
2018-04-11T22:51:27.239Z,4.58
2018-04-11T22:57:17.958Z,4.46
2018-04-11T23:03:08.711Z,4.29
2018-04-11T23:08:59.337Z,4.77
2018-04-11T23:14:50.131Z,4.4
2018-04-11T23:20:40.813Z,4.47
2018-04-11T23:26:31.521Z,4.56
2018-04-11T23:32:22.194Z,3.99
2018-04-11T23:38:12.961Z,4.06
2018-04-11T23:44:03.605Z,4.08
2018-04-11T23:49:54.303Z,4.14
2018-04-11T23:55:44.999Z,3.84
